sensor_id;sensor_type;location;lat;lon;timestamp;pressure;altitude;pressure_sealevel;temperature;humidity
57086;BME280;42964;42.910;23.792;2023-07-29T00:01:04;97486.47;;;16.64;77.72
57086;BME280;42964;42.910;23.792;2023-07-29T00:06:03;97438.50;;;16.32;78.23
57086;BME280;42964;42.910;23.792;2023-07-29T00:11:02;97481.41;;;16.58;78.86
57086;BME280;42964;42.910;23.792;2023-07-29T00:16:01;97476.09;;;16.61;78.28
57086;BME280;42964;42.910;23.792;2023-07-29T00:21:00;97484.94;;;16.57;79.47
57086;BME280;42964;42.910;23.792;2023-07-29T00:25:59;97486.06;;;16.48;79.06
57086;BME280;42964;42.910;23.792;2023-07-29T00:30:58;97482.84;;;16.38;79.15
57086;BME280;42964;42.910;23.792;2023-07-29T00:35:57;97483.66;;;16.40;79.09
57086;BME280;42964;42.910;23.792;2023-07-29T00:40:57;97488.13;;;16.37;79.20
57086;BME280;42964;42.910;23.792;2023-07-29T00:45:56;97473.81;;;16.19;79.52
57086;BME280;42964;42.910;23.792;2023-07-29T00:50:56;97472.75;;;16.24;79.95
57086;BME280;42964;42.910;23.792;2023-07-29T00:55:55;97472.91;;;16.18;80.06
57086;BME280;42964;42.910;23.792;2023-07-29T01:00:54;97441.16;;;15.99;80.20
57086;BME280;42964;42.910;23.792;2023-07-29T01:11:16;97482.72;;;16.12;80.98
57086;BME280;42964;42.910;23.792;2023-07-29T01:16:42;97478.41;;;16.09;80.68
57086;BME280;42964;42.910;23.792;2023-07-29T01:21:45;97481.25;;;16.01;81.54
57086;BME280;42964;42.910;23.792;2023-07-29T01:26:44;97468.34;;;15.95;81.65
57086;BME280;42964;42.910;23.792;2023-07-29T01:31:43;97469.31;;;15.91;81.87
57086;BME280;42964;42.910;23.792;2023-07-29T01:36:43;97481.59;;;15.87;81.69
57086;BME280;42964;42.910;23.792;2023-07-29T01:41:44;97465.03;;;15.88;81.64
57086;BME280;42964;42.910;23.792;2023-07-29T01:46:44;97474.66;;;15.88;81.76
57086;BME280;42964;42.910;23.792;2023-07-29T01:51:43;97476.38;;;15.87;82.20
57086;BME280;42964;42.910;23.792;2023-07-29T01:56:42;97478.22;;;15.84;82.32
57086;BME280;42964;42.910;23.792;2023-07-29T02:01:41;97478.56;;;15.70;82.95
57086;BME280;42964;42.910;23.792;2023-07-29T02:06:40;97484.72;;;15.67;82.94
57086;BME280;42964;42.910;23.792;2023-07-29T02:11:39;97479.63;;;15.63;83.02
57086;BME280;42964;42.910;23.792;2023-07-29T02:16:37;97478.81;;;15.59;82.84
57086;BME280;42964;42.910;23.792;2023-07-29T02:21:37;97471.16;;;15.53;82.31
57086;BME280;42964;42.910;23.792;2023-07-29T02:26:36;97479.28;;;15.41;82.73
57086;BME280;42964;42.910;23.792;2023-07-29T02:31:35;97489.81;;;15.38;82.31
57086;BME280;42964;42.910;23.792;2023-07-29T02:36:36;97475.22;;;15.29;82.83
57086;BME280;42964;42.910;23.792;2023-07-29T02:41:35;97497.22;;;15.20;83.65
57086;BME280;42964;42.910;23.792;2023-07-29T02:46:33;97490.44;;;15.13;84.04
57086;BME280;42964;42.910;23.792;2023-07-29T02:51:32;97494.09;;;15.06;83.87
57086;BME280;42964;42.910;23.792;2023-07-29T02:56:31;97480.44;;;14.92;84.26
57086;BME280;42964;42.910;23.792;2023-07-29T03:01:30;97501.19;;;14.99;84.09
57086;BME280;42964;42.910;23.792;2023-07-29T03:06:29;97497.84;;;14.93;84.55
57086;BME280;42964;42.910;23.792;2023-07-29T03:11:28;97506.53;;;14.95;84.82
57086;BME280;42964;42.910;23.792;2023-07-29T03:16:27;97511.75;;;14.95;84.94
57086;BME280;42964;42.910;23.792;2023-07-29T03:21:26;97503.09;;;14.93;84.46
57086;BME280;42964;42.910;23.792;2023-07-29T03:26:25;97509.97;;;14.97;84.19
57086;BME280;42964;42.910;23.792;2023-07-29T03:31:24;97512.72;;;14.89;85.00
57086;BME280;42964;42.910;23.792;2023-07-29T03:36:22;97517.81;;;14.97;84.54
57086;BME280;42964;42.910;23.792;2023-07-29T03:41:24;97524.75;;;14.96;84.35
57086;BME280;42964;42.910;23.792;2023-07-29T03:46:23;97524.91;;;14.90;84.23
57086;BME280;42964;42.910;23.792;2023-07-29T03:51:21;97532.03;;;14.83;84.30
57086;BME280;42964;42.910;23.792;2023-07-29T03:56:21;97530.28;;;14.82;84.71
57086;BME280;42964;42.910;23.792;2023-07-29T04:01:20;97541.41;;;14.92;84.45
57086;BME280;42964;42.910;23.792;2023-07-29T04:06:19;97538.53;;;15.04;84.15
57086;BME280;42964;42.910;23.792;2023-07-29T04:11:18;97531.41;;;15.11;84.08
57086;BME280;42964;42.910;23.792;2023-07-29T04:16:17;97531.22;;;15.20;84.08
57086;BME280;42964;42.910;23.792;2023-07-29T04:21:15;97525.28;;;15.12;84.78
57086;BME280;42964;42.910;23.792;2023-07-29T04:26:14;97535.41;;;15.28;84.27
57086;BME280;42964;42.910;23.792;2023-07-29T04:31:13;97538.75;;;15.33;84.73
57086;BME280;42964;42.910;23.792;2023-07-29T04:36:12;97534.13;;;15.44;84.25
57086;BME280;42964;42.910;23.792;2023-07-29T04:41:11;97540.47;;;15.34;84.53
57086;BME280;42964;42.910;23.792;2023-07-29T04:46:10;97539.25;;;15.49;84.09
57086;BME280;42964;42.910;23.792;2023-07-29T04:51:09;97504.34;;;15.50;83.37
57086;BME280;42964;42.910;23.792;2023-07-29T04:56:08;97543.56;;;15.87;82.99
57086;BME280;42964;42.910;23.792;2023-07-29T05:01:06;97539.53;;;16.08;82.54
57086;BME280;42964;42.910;23.792;2023-07-29T05:06:05;97536.31;;;16.29;82.43
57086;BME280;42964;42.910;23.792;2023-07-29T05:11:04;97534.97;;;16.47;81.97
57086;BME280;42964;42.910;23.792;2023-07-29T05:16:03;97546.34;;;16.76;80.73
57086;BME280;42964;42.910;23.792;2023-07-29T05:21:02;97553.63;;;16.98;78.96
57086;BME280;42964;42.910;23.792;2023-07-29T05:26:01;97539.22;;;17.12;78.56
57086;BME280;42964;42.910;23.792;2023-07-29T05:31:01;97533.44;;;17.29;77.95
57086;BME280;42964;42.910;23.792;2023-07-29T05:36:00;97528.50;;;17.47;77.25
57086;BME280;42964;42.910;23.792;2023-07-29T05:40:59;97534.94;;;17.63;76.17
57086;BME280;42964;42.910;23.792;2023-07-29T05:45:59;97515.59;;;17.67;75.34
57086;BME280;42964;42.910;23.792;2023-07-29T05:50:58;97528.66;;;17.95;75.32
57086;BME280;42964;42.910;23.792;2023-07-29T05:55:57;97538.78;;;18.31;74.85
57086;BME280;42964;42.910;23.792;2023-07-29T06:00:57;97525.75;;;18.53;72.70
57086;BME280;42964;42.910;23.792;2023-07-29T06:05:55;97524.19;;;18.73;71.92
57086;BME280;42964;42.910;23.792;2023-07-29T06:10:55;97519.25;;;18.87;70.19
57086;BME280;42964;42.910;23.792;2023-07-29T06:15:53;97518.72;;;19.01;69.40
57086;BME280;42964;42.910;23.792;2023-07-29T06:20:52;97509.63;;;19.32;68.48
57086;BME280;42964;42.910;23.792;2023-07-29T06:25:51;97504.25;;;19.57;67.51
57086;BME280;42964;42.910;23.792;2023-07-29T06:30:50;97504.94;;;19.82;64.74
57086;BME280;42964;42.910;23.792;2023-07-29T06:35:49;97512.59;;;20.09;63.50
57086;BME280;42964;42.910;23.792;2023-07-29T06:40:48;97508.16;;;20.30;63.01
57086;BME280;42964;42.910;23.792;2023-07-29T06:45:47;97475.31;;;20.18;63.41
57086;BME280;42964;42.910;23.792;2023-07-29T06:50:46;97504.75;;;20.67;62.41
57086;BME280;42964;42.910;23.792;2023-07-29T06:55:45;97503.69;;;20.90;60.57
57086;BME280;42964;42.910;23.792;2023-07-29T07:00:45;97499.81;;;21.17;59.42
57086;BME280;42964;42.910;23.792;2023-07-29T07:05:44;97497.69;;;21.44;58.43
57086;BME280;42964;42.910;23.792;2023-07-29T07:10:42;97479.59;;;21.71;57.47
57086;BME280;42964;42.910;23.792;2023-07-29T07:15:41;97481.72;;;21.99;55.18
57086;BME280;42964;42.910;23.792;2023-07-29T07:20:40;97476.66;;;22.12;53.46
57086;BME280;42964;42.910;23.792;2023-07-29T07:25:39;97470.59;;;22.27;52.76
57086;BME280;42964;42.910;23.792;2023-07-29T07:30:41;97471.97;;;22.50;52.23
57086;BME280;42964;42.910;23.792;2023-07-29T07:35:40;97487.22;;;22.63;51.21
57086;BME280;42964;42.910;23.792;2023-07-29T07:40:41;97475.66;;;22.97;50.85
57086;BME280;42964;42.910;23.792;2023-07-29T07:45:40;97477.72;;;23.23;49.08
57086;BME280;42964;42.910;23.792;2023-07-29T07:50:39;97490.56;;;23.46;48.24
57086;BME280;42964;42.910;23.792;2023-07-29T07:55:38;97495.06;;;23.75;46.99
57086;BME280;42964;42.910;23.792;2023-07-29T08:00:37;97493.75;;;24.13;47.30
57086;BME280;42964;42.910;23.792;2023-07-29T08:05:36;97488.28;;;24.44;46.81
57086;BME280;42964;42.910;23.792;2023-07-29T08:10:35;97481.06;;;24.75;43.89
57086;BME280;42964;42.910;23.792;2023-07-29T08:15:34;97480.72;;;24.96;44.29
57086;BME280;42964;42.910;23.792;2023-07-29T08:20:33;97471.72;;;25.25;44.64
57086;BME280;42964;42.910;23.792;2023-07-29T08:25:32;97473.72;;;25.49;44.21
57086;BME280;42964;42.910;23.792;2023-07-29T08:30:31;97470.00;;;25.79;41.51
57086;BME280;42964;42.910;23.792;2023-07-29T08:35:30;97460.78;;;26.10;41.13
57086;BME280;42964;42.910;23.792;2023-07-29T08:40:29;97446.56;;;26.24;40.11
57086;BME280;42964;42.910;23.792;2023-07-29T08:45:32;97453.16;;;26.44;40.51
57086;BME280;42964;42.910;23.792;2023-07-29T08:50:33;97371.53;;;26.19;39.53
57086;BME280;42964;42.910;23.792;2023-07-29T08:55:34;97445.59;;;27.00;37.80
57086;BME280;42964;42.910;23.792;2023-07-29T09:00:34;97443.16;;;27.10;36.56
57086;BME280;42964;42.910;23.792;2023-07-29T09:05:34;97440.72;;;27.31;36.80
57086;BME280;42964;42.910;23.792;2023-07-29T09:10:36;97440.59;;;27.32;33.44
57086;BME280;42964;42.910;23.792;2023-07-29T09:15:38;97398.69;;;27.34;34.03
57086;BME280;42964;42.910;23.792;2023-07-29T09:20:38;97425.13;;;27.61;33.36
57086;BME280;42964;42.910;23.792;2023-07-29T09:25:37;97408.78;;;27.77;32.51
57086;BME280;42964;42.910;23.792;2023-07-29T09:30:38;97409.69;;;28.00;33.14
57086;BME280;42964;42.910;23.792;2023-07-29T09:35:38;97412.03;;;28.16;32.24
57086;BME280;42964;42.910;23.792;2023-07-29T09:40:38;97406.84;;;28.37;30.77
57086;BME280;42964;42.910;23.792;2023-07-29T09:45:37;97402.34;;;28.38;31.20
57086;BME280;42964;42.910;23.792;2023-07-29T09:50:36;97371.41;;;28.24;30.96
57086;BME280;42964;42.910;23.792;2023-07-29T09:55:35;97397.13;;;28.59;30.83
57086;BME280;42964;42.910;23.792;2023-07-29T10:00:35;97389.00;;;28.60;30.27
57086;BME280;42964;42.910;23.792;2023-07-29T10:05:34;97374.44;;;28.64;30.82
57086;BME280;42964;42.910;23.792;2023-07-29T10:10:34;97391.69;;;28.83;29.86
57086;BME280;42964;42.910;23.792;2023-07-29T10:15:33;97383.66;;;28.83;30.48
57086;BME280;42964;42.910;23.792;2023-07-29T10:20:33;97393.53;;;29.03;29.98
57086;BME280;42964;42.910;23.792;2023-07-29T10:25:38;97378.31;;;29.15;28.04
57086;BME280;42964;42.910;23.792;2023-07-29T10:30:41;97371.88;;;29.29;30.55
57086;BME280;42964;42.910;23.792;2023-07-29T10:35:41;97348.53;;;29.31;31.63
57086;BME280;42964;42.910;23.792;2023-07-29T10:40:50;97359.38;;;29.71;30.77
57086;BME280;42964;42.910;23.792;2023-07-29T10:45:50;97353.84;;;29.84;30.17
57086;BME280;42964;42.910;23.792;2023-07-29T10:50:49;97350.16;;;30.06;31.19
57086;BME280;42964;42.910;23.792;2023-07-29T10:55:51;97343.97;;;30.06;30.84
57086;BME280;42964;42.910;23.792;2023-07-29T11:00:50;97350.38;;;29.94;31.37
57086;BME280;42964;42.910;23.792;2023-07-29T11:05:51;97337.41;;;30.20;29.79
57086;BME280;42964;42.910;23.792;2023-07-29T11:11:07;97342.75;;;30.50;31.08
57086;BME280;42964;42.910;23.792;2023-07-29T11:16:06;97333.28;;;30.46;28.62
57086;BME280;42964;42.910;23.792;2023-07-29T11:21:05;97336.19;;;30.33;29.17
57086;BME280;42964;42.910;23.792;2023-07-29T11:26:05;97304.84;;;30.15;29.82
57086;BME280;42964;42.910;23.792;2023-07-29T11:31:04;97335.03;;;30.57;29.14
57086;BME280;42964;42.910;23.792;2023-07-29T11:36:03;97338.56;;;30.67;29.22
57086;BME280;42964;42.910;23.792;2023-07-29T11:41:02;97328.41;;;30.61;28.79
57086;BME280;42964;42.910;23.792;2023-07-29T11:46:02;97301.06;;;30.67;28.65
57086;BME280;42964;42.910;23.792;2023-07-29T11:51:02;97315.94;;;31.01;28.49
57086;BME280;42964;42.910;23.792;2023-07-29T11:56:03;97314.97;;;31.50;28.15
57086;BME280;42964;42.910;23.792;2023-07-29T12:01:03;97303.94;;;31.53;27.51
57086;BME280;42964;42.910;23.792;2023-07-29T12:06:02;97300.72;;;31.87;27.41
57086;BME280;42964;42.910;23.792;2023-07-29T12:11:01;97290.66;;;31.99;28.50
57086;BME280;42964;42.910;23.792;2023-07-29T12:16:03;97291.41;;;31.91;27.38
57086;BME280;42964;42.910;23.792;2023-07-29T12:21:03;97292.59;;;32.44;27.59
57086;BME280;42964;42.910;23.792;2023-07-29T12:26:02;97281.47;;;32.84;26.87
57086;BME280;42964;42.910;23.792;2023-07-29T12:31:01;97282.56;;;33.10;26.28
57086;BME280;42964;42.910;23.792;2023-07-29T12:36:00;97281.47;;;33.38;26.10
57086;BME280;42964;42.910;23.792;2023-07-29T12:40:59;97279.13;;;33.43;25.26
57086;BME280;42964;42.910;23.792;2023-07-29T12:45:58;97276.19;;;33.11;26.10
57086;BME280;42964;42.910;23.792;2023-07-29T12:50:57;97279.59;;;33.39;26.14
57086;BME280;42964;42.910;23.792;2023-07-29T12:55:56;97282.50;;;33.45;26.91
57086;BME280;42964;42.910;23.792;2023-07-29T13:00:55;97286.31;;;32.99;27.85
57086;BME280;42964;42.910;23.792;2023-07-29T13:05:54;97276.78;;;33.22;28.01
57086;BME280;42964;42.910;23.792;2023-07-29T13:10:53;97268.19;;;33.01;27.07
57086;BME280;42964;42.910;23.792;2023-07-29T13:15:52;97270.03;;;32.82;27.46
57086;BME280;42964;42.910;23.792;2023-07-29T13:20:51;97288.47;;;32.50;27.56
57086;BME280;42964;42.910;23.792;2023-07-29T13:25:50;97282.09;;;32.96;27.08
57086;BME280;42964;42.910;23.792;2023-07-29T13:30:49;97267.13;;;32.94;26.40
57086;BME280;42964;42.910;23.792;2023-07-29T13:35:48;97285.84;;;32.85;25.96
57086;BME280;42964;42.910;23.792;2023-07-29T13:40:47;97284.84;;;32.04;25.26
57086;BME280;42964;42.910;23.792;2023-07-29T13:45:49;97286.38;;;31.78;27.05
57086;BME280;42964;42.910;23.792;2023-07-29T13:50:48;97274.19;;;31.84;27.36
57086;BME280;42964;42.910;23.792;2023-07-29T13:55:47;97250.63;;;32.15;28.08
57086;BME280;42964;42.910;23.792;2023-07-29T14:00:46;97284.44;;;32.36;27.97
57086;BME280;42964;42.910;23.792;2023-07-29T14:05:45;97283.34;;;32.29;28.92
57086;BME280;42964;42.910;23.792;2023-07-29T14:10:44;97285.41;;;32.17;28.79
57086;BME280;42964;42.910;23.792;2023-07-29T14:15:43;97273.75;;;32.26;29.38
57086;BME280;42964;42.910;23.792;2023-07-29T14:20:42;97249.69;;;32.34;29.91
57086;BME280;42964;42.910;23.792;2023-07-29T14:25:41;97268.19;;;32.10;29.29
57086;BME280;42964;42.910;23.792;2023-07-29T14:30:40;97262.50;;;31.75;29.62
57086;BME280;42964;42.910;23.792;2023-07-29T14:35:39;97271.63;;;31.26;29.79
57086;BME280;42964;42.910;23.792;2023-07-29T14:40:38;97274.75;;;31.21;29.74
57086;BME280;42964;42.910;23.792;2023-07-29T14:45:37;97278.28;;;31.31;29.04
57086;BME280;42964;42.910;23.792;2023-07-29T14:50:36;97271.34;;;31.38;28.81
57086;BME280;42964;42.910;23.792;2023-07-29T14:55:36;97267.25;;;31.34;29.49
57086;BME280;42964;42.910;23.792;2023-07-29T15:00:35;97270.34;;;31.39;29.60
57086;BME280;42964;42.910;23.792;2023-07-29T15:05:34;97279.28;;;31.01;29.68
57086;BME280;42964;42.910;23.792;2023-07-29T15:10:33;97260.88;;;30.67;29.60
57086;BME280;42964;42.910;23.792;2023-07-29T15:15:32;97263.72;;;30.75;29.52
57086;BME280;42964;42.910;23.792;2023-07-29T15:20:31;97260.75;;;30.79;28.17
57086;BME280;42964;42.910;23.792;2023-07-29T15:25:30;97223.25;;;30.79;28.62
57086;BME280;42964;42.910;23.792;2023-07-29T15:30:29;97256.66;;;30.74;28.28
57086;BME280;42964;42.910;23.792;2023-07-29T15:35:28;97259.75;;;30.70;27.86
57086;BME280;42964;42.910;23.792;2023-07-29T15:40:27;97235.72;;;30.29;27.44
57086;BME280;42964;42.910;23.792;2023-07-29T15:45:26;97269.44;;;30.42;28.20
57086;BME280;42964;42.910;23.792;2023-07-29T15:50:25;97275.25;;;30.47;29.67
57086;BME280;42964;42.910;23.792;2023-07-29T15:55:24;97275.56;;;30.63;29.59
57086;BME280;42964;42.910;23.792;2023-07-29T16:00:23;97280.03;;;30.53;29.47
57086;BME280;42964;42.910;23.792;2023-07-29T16:05:22;97289.38;;;30.28;30.22
57086;BME280;42964;42.910;23.792;2023-07-29T16:10:21;97297.44;;;29.97;30.36
57086;BME280;42964;42.910;23.792;2023-07-29T16:15:20;97299.00;;;29.79;31.09
57086;BME280;42964;42.910;23.792;2023-07-29T16:20:19;97300.44;;;29.83;31.33
57086;BME280;42964;42.910;23.792;2023-07-29T16:25:18;97302.28;;;29.82;31.01
57086;BME280;42964;42.910;23.792;2023-07-29T16:30:17;97288.88;;;29.73;30.80
57086;BME280;42964;42.910;23.792;2023-07-29T16:35:17;97298.63;;;29.83;30.66
57086;BME280;42964;42.910;23.792;2023-07-29T16:40:16;97297.06;;;29.81;30.86
57086;BME280;42964;42.910;23.792;2023-07-29T16:45:15;97313.72;;;29.84;30.99
57086;BME280;42964;42.910;23.792;2023-07-29T16:50:14;97306.81;;;29.61;31.51
57086;BME280;42964;42.910;23.792;2023-07-29T16:55:13;97322.59;;;29.64;31.98
57086;BME280;42964;42.910;23.792;2023-07-29T17:00:13;97317.69;;;29.48;32.41
57086;BME280;42964;42.910;23.792;2023-07-29T17:05:12;97326.44;;;29.29;32.42
57086;BME280;42964;42.910;23.792;2023-07-29T17:10:10;97327.78;;;29.23;32.27
57086;BME280;42964;42.910;23.792;2023-07-29T17:15:09;97331.47;;;29.11;32.64
57086;BME280;42964;42.910;23.792;2023-07-29T17:20:09;97337.91;;;29.08;33.02
57086;BME280;42964;42.910;23.792;2023-07-29T17:25:08;97337.47;;;28.92;34.24
57086;BME280;42964;42.910;23.792;2023-07-29T17:30:07;97346.75;;;28.65;34.97
57086;BME280;42964;42.910;23.792;2023-07-29T17:35:07;97337.81;;;28.44;36.39
57086;BME280;42964;42.910;23.792;2023-07-29T17:40:06;97350.69;;;28.16;36.72
57086;BME280;42964;42.910;23.792;2023-07-29T17:45:06;97352.31;;;27.83;37.62
57086;BME280;42964;42.910;23.792;2023-07-29T17:50:05;97366.69;;;27.47;38.62
57086;BME280;42964;42.910;23.792;2023-07-29T17:55:04;97369.41;;;27.10;38.87
57086;BME280;42964;42.910;23.792;2023-07-29T18:00:05;97364.41;;;26.82;39.32
57086;BME280;42964;42.910;23.792;2023-07-29T18:05:05;97364.59;;;26.54;40.07
57086;BME280;42964;42.910;23.792;2023-07-29T18:10:04;97370.59;;;26.20;41.58
57086;BME280;42964;42.910;23.792;2023-07-29T18:15:05;97379.97;;;26.00;42.17
57086;BME280;42964;42.910;23.792;2023-07-29T18:20:04;97374.84;;;25.71;42.73
57086;BME280;42964;42.910;23.792;2023-07-29T18:25:05;97383.50;;;25.47;42.98
57086;BME280;42964;42.910;23.792;2023-07-29T18:30:05;97388.34;;;25.28;43.47
57086;BME280;42964;42.910;23.792;2023-07-29T18:35:04;97395.91;;;25.07;43.93
57086;BME280;42964;42.910;23.792;2023-07-29T18:40:03;97400.91;;;24.70;45.21
57086;BME280;42964;42.910;23.792;2023-07-29T18:45:03;97399.41;;;24.66;45.20
57086;BME280;42964;42.910;23.792;2023-07-29T18:50:02;97411.00;;;24.51;45.71
57086;BME280;42964;42.910;23.792;2023-07-29T18:55:02;97413.66;;;24.36;46.16
57086;BME280;42964;42.910;23.792;2023-07-29T19:00:01;97422.38;;;24.24;47.26
57086;BME280;42964;42.910;23.792;2023-07-29T19:05:02;97410.88;;;23.95;49.35
57086;BME280;42964;42.910;23.792;2023-07-29T19:10:03;97421.22;;;23.69;50.54
57086;BME280;42964;42.910;23.792;2023-07-29T19:15:03;97427.72;;;23.49;51.45
57086;BME280;42964;42.910;23.792;2023-07-29T19:20:02;97427.63;;;23.35;51.92
57086;BME280;42964;42.910;23.792;2023-07-29T19:25:03;97423.03;;;23.22;52.71
57086;BME280;42964;42.910;23.792;2023-07-29T19:30:02;97431.16;;;23.19;53.27
57086;BME280;42964;42.910;23.792;2023-07-29T19:35:01;97425.81;;;23.05;53.45
57086;BME280;42964;42.910;23.792;2023-07-29T19:40:00;97431.50;;;22.97;54.19
57086;BME280;42964;42.910;23.792;2023-07-29T19:44:59;97415.06;;;22.76;54.19
57086;BME280;42964;42.910;23.792;2023-07-29T19:49:58;97429.22;;;22.75;55.19
57086;BME280;42964;42.910;23.792;2023-07-29T19:54:57;97432.00;;;22.72;54.96
57086;BME280;42964;42.910;23.792;2023-07-29T19:59:56;97433.19;;;22.67;54.80
57086;BME280;42964;42.910;23.792;2023-07-29T20:04:55;97433.78;;;22.56;54.25
57086;BME280;42964;42.910;23.792;2023-07-29T20:09:54;97432.56;;;22.46;54.46
57086;BME280;42964;42.910;23.792;2023-07-29T20:14:52;97450.66;;;22.37;55.03
57086;BME280;42964;42.910;23.792;2023-07-29T20:19:53;97436.06;;;22.30;56.19
57086;BME280;42964;42.910;23.792;2023-07-29T20:24:52;97436.38;;;22.24;56.39
57086;BME280;42964;42.910;23.792;2023-07-29T20:29:51;97427.47;;;22.09;57.12
57086;BME280;42964;42.910;23.792;2023-07-29T20:34:53;97445.25;;;22.06;58.70
57086;BME280;42964;42.910;23.792;2023-07-29T20:39:52;97444.78;;;21.97;59.45
57086;BME280;42964;42.910;23.792;2023-07-29T20:44:51;97447.06;;;21.88;59.92
57086;BME280;42964;42.910;23.792;2023-07-29T20:49:50;97450.72;;;21.68;60.52
57086;BME280;42964;42.910;23.792;2023-07-29T20:54:50;97447.53;;;21.44;60.87
57086;BME280;42964;42.910;23.792;2023-07-29T20:59:49;97445.19;;;21.38;61.83
57086;BME280;42964;42.910;23.792;2023-07-29T21:04:48;97439.50;;;21.28;61.79
57086;BME280;42964;42.910;23.792;2023-07-29T21:09:47;97448.84;;;21.16;62.83
57086;BME280;42964;42.910;23.792;2023-07-29T21:14:46;97409.47;;;20.94;63.41
57086;BME280;42964;42.910;23.792;2023-07-29T21:19:45;97436.16;;;21.05;63.79
57086;BME280;42964;42.910;23.792;2023-07-29T21:24:44;97442.19;;;20.90;64.38
57086;BME280;42964;42.910;23.792;2023-07-29T21:29:43;97436.72;;;20.76;65.11
57086;BME280;42964;42.910;23.792;2023-07-29T21:34:43;97443.25;;;20.67;65.34
57086;BME280;42964;42.910;23.792;2023-07-29T21:39:42;97453.44;;;20.56;66.21
57086;BME280;42964;42.910;23.792;2023-07-29T21:44:41;97450.75;;;20.37;66.90
57086;BME280;42964;42.910;23.792;2023-07-29T21:49:40;97442.91;;;20.35;67.13
57086;BME280;42964;42.910;23.792;2023-07-29T21:54:39;97435.00;;;20.16;67.56
57086;BME280;42964;42.910;23.792;2023-07-29T21:59:37;97455.38;;;20.13;68.56
57086;BME280;42964;42.910;23.792;2023-07-29T22:04:37;97449.44;;;20.07;68.42
57086;BME280;42964;42.910;23.792;2023-07-29T22:09:36;97439.63;;;19.91;69.25
57086;BME280;42964;42.910;23.792;2023-07-29T22:14:35;97447.16;;;19.79;70.00
57086;BME280;42964;42.910;23.792;2023-07-29T22:19:34;97446.97;;;19.63;70.72
57086;BME280;42964;42.910;23.792;2023-07-29T22:24:33;97438.47;;;19.57;70.62
57086;BME280;42964;42.910;23.792;2023-07-29T22:29:31;97414.53;;;19.41;70.88
57086;BME280;42964;42.910;23.792;2023-07-29T22:34:30;97430.78;;;19.51;71.60
57086;BME280;42964;42.910;23.792;2023-07-29T22:39:30;97431.91;;;19.45;71.92
57086;BME280;42964;42.910;23.792;2023-07-29T22:44:28;97440.00;;;19.40;72.11
57086;BME280;42964;42.910;23.792;2023-07-29T22:49:27;97437.53;;;19.36;72.12
57086;BME280;42964;42.910;23.792;2023-07-29T22:54:28;97443.06;;;19.30;73.03
57086;BME280;42964;42.910;23.792;2023-07-29T22:59:27;97439.53;;;19.31;73.97
57086;BME280;42964;42.910;23.792;2023-07-29T23:04:26;97421.09;;;19.09;74.60
57086;BME280;42964;42.910;23.792;2023-07-29T23:09:25;97437.31;;;19.20;74.33
57086;BME280;42964;42.910;23.792;2023-07-29T23:14:24;97437.44;;;19.17;74.80
57086;BME280;42964;42.910;23.792;2023-07-29T23:19:23;97441.97;;;19.13;74.58
57086;BME280;42964;42.910;23.792;2023-07-29T23:24:22;97436.97;;;19.07;74.74
57086;BME280;42964;42.910;23.792;2023-07-29T23:29:21;97433.66;;;19.02;74.73
57086;BME280;42964;42.910;23.792;2023-07-29T23:34:20;97404.63;;;18.83;74.67
57086;BME280;42964;42.910;23.792;2023-07-29T23:39:19;97428.69;;;18.94;74.63
57086;BME280;42964;42.910;23.792;2023-07-29T23:44:18;97429.94;;;18.86;75.07
57086;BME280;42964;42.910;23.792;2023-07-29T23:49:17;97424.72;;;18.84;74.89
57086;BME280;42964;42.910;23.792;2023-07-29T23:54:16;97425.66;;;18.83;74.84
57086;BME280;42964;42.910;23.792;2023-07-29T23:59:15;97407.81;;;18.68;74.97
